sensor_id;sensor_type;location;lat;lon;timestamp;P1;durP1;ratioP1;P2;durP2;ratioP2
22675;SDS011;12521;43.310;21.876;2023-04-25T00:00:17;3.0;;;2.0;;
22675;SDS011;12521;43.310;21.876;2023-04-25T00:04:54;4.0;;;2.0;;
22675;SDS011;12521;43.310;21.876;2023-04-25T00:09:30;4.0;;;2.0;;
22675;SDS011;12521;43.310;21.876;2023-04-25T00:14:08;5.0;;;3.0;;
22675;SDS011;12521;43.310;21.876;2023-04-25T00:18:45;5.0;;;3.0;;
22675;SDS011;12521;43.310;21.876;2023-04-25T00:23:21;5.0;;;3.0;;
22675;SDS011;12521;43.310;21.876;2023-04-25T00:27:58;5.0;;;3.0;;
22675;SDS011;12521;43.310;21.876;2023-04-25T00:32:35;5.0;;;3.0;;
22675;SDS011;12521;43.310;21.876;2023-04-25T00:37:12;5.0;;;3.0;;
22675;SDS011;12521;43.310;21.876;2023-04-25T00:41:49;5.0;;;3.0;;
22675;SDS011;12521;43.310;21.876;2023-04-25T00:46:30;4.0;;;2.0;;
22675;SDS011;12521;43.310;21.876;2023-04-25T00:51:11;4.0;;;2.0;;
22675;SDS011;12521;43.310;21.876;2023-04-25T00:56:01;4.0;;;2.0;;
22675;SDS011;12521;43.310;21.876;2023-04-25T01:00:40;4.0;;;2.0;;
22675;SDS011;12521;43.310;21.876;2023-04-25T01:05:24;4.0;;;3.0;;
22675;SDS011;12521;43.310;21.876;2023-04-25T01:10:01;4.0;;;3.0;;
22675;SDS011;12521;43.310;21.876;2023-04-25T01:14:44;5.0;;;4.0;;
22675;SDS011;12521;43.310;21.876;2023-04-25T01:19:22;5.0;;;4.0;;
22675;SDS011;12521;43.310;21.876;2023-04-25T01:24:01;5.0;;;4.0;;
22675;SDS011;12521;43.310;21.876;2023-04-25T01:28:42;5.0;;;4.0;;
22675;SDS011;12521;43.310;21.876;2023-04-25T01:33:21;5.0;;;4.0;;
22675;SDS011;12521;43.310;21.876;2023-04-25T01:37:59;5.0;;;3.0;;
22675;SDS011;12521;43.310;21.876;2023-04-25T01:42:37;5.0;;;3.0;;
22675;SDS011;12521;43.310;21.876;2023-04-25T01:47:20;4.0;;;3.0;;
22675;SDS011;12521;43.310;21.876;2023-04-25T01:51:57;4.0;;;3.0;;
22675;SDS011;12521;43.310;21.876;2023-04-25T01:56:36;4.0;;;3.0;;
22675;SDS011;12521;43.310;21.876;2023-04-25T02:01:15;4.0;;;3.0;;
22675;SDS011;12521;43.310;21.876;2023-04-25T02:05:52;4.0;;;4.0;;
22675;SDS011;12521;43.310;21.876;2023-04-25T02:10:29;4.0;;;4.0;;
22675;SDS011;12521;43.310;21.876;2023-04-25T02:15:06;4.0;;;4.0;;
22675;SDS011;12521;43.310;21.876;2023-04-25T02:19:45;4.0;;;4.0;;
22675;SDS011;12521;43.310;21.876;2023-04-25T02:24:22;5.0;;;4.0;;
22675;SDS011;12521;43.310;21.876;2023-04-25T02:28:59;5.0;;;4.0;;
22675;SDS011;12521;43.310;21.876;2023-04-25T02:33:36;6.0;;;5.0;;
22675;SDS011;12521;43.310;21.876;2023-04-25T02:38:12;6.0;;;5.0;;
22675;SDS011;12521;43.310;21.876;2023-04-25T02:42:49;6.0;;;5.0;;
22675;SDS011;12521;43.310;21.876;2023-04-25T02:47:26;4.0;;;4.0;;
22675;SDS011;12521;43.310;21.876;2023-04-25T02:52:03;4.0;;;4.0;;
22675;SDS011;12521;43.310;21.876;2023-04-25T02:56:39;3.0;;;3.0;;
22675;SDS011;12521;43.310;21.876;2023-04-25T03:01:16;3.0;;;3.0;;
22675;SDS011;12521;43.310;21.876;2023-04-25T03:05:52;3.0;;;3.0;;
22675;SDS011;12521;43.310;21.876;2023-04-25T03:10:29;3.0;;;3.0;;
22675;SDS011;12521;43.310;21.876;2023-04-25T03:15:06;3.0;;;3.0;;
22675;SDS011;12521;43.310;21.876;2023-04-25T03:19:45;3.0;;;3.0;;
22675;SDS011;12521;43.310;21.876;2023-04-25T03:24:23;4.0;;;4.0;;
22675;SDS011;12521;43.310;21.876;2023-04-25T03:29:00;4.0;;;4.0;;
22675;SDS011;12521;43.310;21.876;2023-04-25T03:33:38;4.0;;;4.0;;
22675;SDS011;12521;43.310;21.876;2023-04-25T03:38:15;6.0;;;4.0;;
22675;SDS011;12521;43.310;21.876;2023-04-25T03:42:53;6.0;;;4.0;;
22675;SDS011;12521;43.310;21.876;2023-04-25T03:47:30;6.0;;;5.0;;
22675;SDS011;12521;43.310;21.876;2023-04-25T03:52:07;6.0;;;5.0;;
22675;SDS011;12521;43.310;21.876;2023-04-25T03:56:44;6.0;;;6.0;;
22675;SDS011;12521;43.310;21.876;2023-04-25T04:01:20;6.0;;;6.0;;
22675;SDS011;12521;43.310;21.876;2023-04-25T04:05:57;6.0;;;6.0;;
22675;SDS011;12521;43.310;21.876;2023-04-25T04:10:34;6.0;;;6.0;;
22675;SDS011;12521;43.310;21.876;2023-04-25T04:15:10;6.0;;;5.0;;
22675;SDS011;12521;43.310;21.876;2023-04-25T04:19:47;6.0;;;5.0;;
22675;SDS011;12521;43.310;21.876;2023-04-25T04:24:24;7.0;;;6.0;;
22675;SDS011;12521;43.310;21.876;2023-04-25T04:29:00;7.0;;;6.0;;
22675;SDS011;12521;43.310;21.876;2023-04-25T04:33:37;7.0;;;6.0;;
22675;SDS011;12521;43.310;21.876;2023-04-25T04:38:13;8.0;;;6.0;;
22675;SDS011;12521;43.310;21.876;2023-04-25T04:42:50;8.0;;;6.0;;
22675;SDS011;12521;43.310;21.876;2023-04-25T04:47:27;10.0;;;8.0;;
22675;SDS011;12521;43.310;21.876;2023-04-25T04:52:03;10.0;;;8.0;;
22675;SDS011;12521;43.310;21.876;2023-04-25T04:56:40;11.0;;;9.0;;
22675;SDS011;12521;43.310;21.876;2023-04-25T05:01:16;11.0;;;9.0;;
22675;SDS011;12521;43.310;21.876;2023-04-25T05:05:53;10.0;;;8.0;;
22675;SDS011;12521;43.310;21.876;2023-04-25T05:10:31;10.0;;;8.0;;
22675;SDS011;12521;43.310;21.876;2023-04-25T05:15:08;10.0;;;8.0;;
22675;SDS011;12521;43.310;21.876;2023-04-25T05:19:46;10.0;;;8.0;;
22675;SDS011;12521;43.310;21.876;2023-04-25T05:24:23;10.0;;;9.0;;
22675;SDS011;12521;43.310;21.876;2023-04-25T05:28:59;10.0;;;9.0;;
22675;SDS011;12521;43.310;21.876;2023-04-25T05:33:36;10.0;;;9.0;;
22675;SDS011;12521;43.310;21.876;2023-04-25T05:38:13;11.0;;;10.0;;
22675;SDS011;12521;43.310;21.876;2023-04-25T05:42:49;11.0;;;10.0;;
22675;SDS011;12521;43.310;21.876;2023-04-25T05:47:26;10.0;;;8.0;;
22675;SDS011;12521;43.310;21.876;2023-04-25T05:52:03;10.0;;;8.0;;
22675;SDS011;12521;43.310;21.876;2023-04-25T05:56:41;9.0;;;7.0;;
22675;SDS011;12521;43.310;21.876;2023-04-25T06:01:18;9.0;;;7.0;;
22675;SDS011;12521;43.310;21.876;2023-04-25T06:05:57;8.0;;;6.0;;
22675;SDS011;12521;43.310;21.876;2023-04-25T06:10:34;8.0;;;6.0;;
22675;SDS011;12521;43.310;21.876;2023-04-25T06:15:13;6.0;;;5.0;;
22675;SDS011;12521;43.310;21.876;2023-04-25T06:19:50;6.0;;;5.0;;
22675;SDS011;12521;43.310;21.876;2023-04-25T06:24:27;7.0;;;6.0;;
22675;SDS011;12521;43.310;21.876;2023-04-25T06:29:04;7.0;;;6.0;;
22675;SDS011;12521;43.310;21.876;2023-04-25T06:33:41;7.0;;;6.0;;
22675;SDS011;12521;43.310;21.876;2023-04-25T06:38:18;8.0;;;6.0;;
22675;SDS011;12521;43.310;21.876;2023-04-25T06:42:55;8.0;;;6.0;;
22675;SDS011;12521;43.310;21.876;2023-04-25T06:47:31;6.0;;;5.0;;
22675;SDS011;12521;43.310;21.876;2023-04-25T06:52:08;6.0;;;5.0;;
22675;SDS011;12521;43.310;21.876;2023-04-25T06:56:45;4.0;;;4.0;;
22675;SDS011;12521;43.310;21.876;2023-04-25T07:01:21;4.0;;;4.0;;
22675;SDS011;12521;43.310;21.876;2023-04-25T07:05:58;4.0;;;4.0;;
22675;SDS011;12521;43.310;21.876;2023-04-25T07:10:35;4.0;;;4.0;;
22675;SDS011;12521;43.310;21.876;2023-04-25T07:15:11;4.0;;;3.0;;
22675;SDS011;12521;43.310;21.876;2023-04-25T07:19:48;4.0;;;3.0;;
22675;SDS011;12521;43.310;21.876;2023-04-25T07:24:24;4.0;;;3.0;;
22675;SDS011;12521;43.310;21.876;2023-04-25T07:29:01;4.0;;;3.0;;
22675;SDS011;12521;43.310;21.876;2023-04-25T07:33:38;4.0;;;3.0;;
22675;SDS011;12521;43.310;21.876;2023-04-25T07:38:14;4.0;;;3.0;;
22675;SDS011;12521;43.310;21.876;2023-04-25T07:42:51;4.0;;;3.0;;
22675;SDS011;12521;43.310;21.876;2023-04-25T07:47:27;5.0;;;4.0;;
22675;SDS011;12521;43.310;21.876;2023-04-25T07:52:04;5.0;;;4.0;;
22675;SDS011;12521;43.310;21.876;2023-04-25T07:56:41;6.0;;;4.0;;
22675;SDS011;12521;43.310;21.876;2023-04-25T08:01:18;6.0;;;4.0;;
22675;SDS011;12521;43.310;21.876;2023-04-25T08:05:54;7.0;;;4.0;;
22675;SDS011;12521;43.310;21.876;2023-04-25T08:10:31;7.0;;;4.0;;
22675;SDS011;12521;43.310;21.876;2023-04-25T08:15:08;8.0;;;4.0;;
22675;SDS011;12521;43.310;21.876;2023-04-25T08:19:47;8.0;;;4.0;;
22675;SDS011;12521;43.310;21.876;2023-04-25T08:24:24;7.0;;;4.0;;
22675;SDS011;12521;43.310;21.876;2023-04-25T08:29:00;7.0;;;4.0;;
22675;SDS011;12521;43.310;21.876;2023-04-25T08:33:37;7.0;;;4.0;;
22675;SDS011;12521;43.310;21.876;2023-04-25T08:38:14;6.0;;;3.0;;
22675;SDS011;12521;43.310;21.876;2023-04-25T08:42:53;6.0;;;3.0;;
22675;SDS011;12521;43.310;21.876;2023-04-25T08:47:38;5.0;;;4.0;;
22675;SDS011;12521;43.310;21.876;2023-04-25T08:52:21;5.0;;;4.0;;
22675;SDS011;12521;43.310;21.876;2023-04-25T08:57:20;4.0;;;4.0;;
22675;SDS011;12521;43.310;21.876;2023-04-25T09:02:02;4.0;;;4.0;;
22675;SDS011;12521;43.310;21.876;2023-04-25T09:06:40;6.0;;;5.0;;
22675;SDS011;12521;43.310;21.876;2023-04-25T09:11:18;6.0;;;5.0;;
22675;SDS011;12521;43.310;21.876;2023-04-25T09:15:56;7.0;;;6.0;;
22675;SDS011;12521;43.310;21.876;2023-04-25T09:20:37;7.0;;;6.0;;
22675;SDS011;12521;43.310;21.876;2023-04-25T09:25:19;8.0;;;8.0;;
22675;SDS011;12521;43.310;21.876;2023-04-25T09:29:57;8.0;;;8.0;;
22675;SDS011;12521;43.310;21.876;2023-04-25T09:34:38;10.0;;;9.0;;
22675;SDS011;12521;43.310;21.876;2023-04-25T09:39:21;10.0;;;9.0;;
22675;SDS011;12521;43.310;21.876;2023-04-25T09:43:58;10.0;;;9.0;;
22675;SDS011;12521;43.310;21.876;2023-04-25T09:48:34;8.0;;;7.0;;
22675;SDS011;12521;43.310;21.876;2023-04-25T09:53:11;8.0;;;7.0;;
22675;SDS011;12521;43.310;21.876;2023-04-25T09:57:48;6.0;;;5.0;;
22675;SDS011;12521;43.310;21.876;2023-04-25T10:02:42;6.0;;;5.0;;
22675;SDS011;12521;43.310;21.876;2023-04-25T10:07:29;6.0;;;5.0;;
22675;SDS011;12521;43.310;21.876;2023-04-25T10:12:13;6.0;;;5.0;;
22675;SDS011;12521;43.310;21.876;2023-04-25T10:16:52;5.0;;;5.0;;
22675;SDS011;12521;43.310;21.876;2023-04-25T10:21:34;5.0;;;5.0;;
22675;SDS011;12521;43.310;21.876;2023-04-25T10:26:38;6.0;;;5.0;;
22675;SDS011;12521;43.310;21.876;2023-04-25T10:31:17;6.0;;;5.0;;
22675;SDS011;12521;43.310;21.876;2023-04-25T10:35:53;6.0;;;5.0;;
22675;SDS011;12521;43.310;21.876;2023-04-25T10:40:45;6.0;;;5.0;;
22675;SDS011;12521;43.310;21.876;2023-04-25T10:45:50;8.0;;;6.0;;
22675;SDS011;12521;43.310;21.876;2023-04-25T10:50:36;8.0;;;6.0;;
22675;SDS011;12521;43.310;21.876;2023-04-25T10:55:14;10.0;;;6.0;;
22675;SDS011;12521;43.310;21.876;2023-04-25T10:59:50;10.0;;;6.0;;
22675;SDS011;12521;43.310;21.876;2023-04-25T11:04:28;9.0;;;6.0;;
22675;SDS011;12521;43.310;21.876;2023-04-25T11:09:10;9.0;;;6.0;;
22675;SDS011;12521;43.310;21.876;2023-04-25T11:13:49;9.0;;;6.0;;
22675;SDS011;12521;43.310;21.876;2023-04-25T11:18:26;8.0;;;7.0;;
22675;SDS011;12521;43.310;21.876;2023-04-25T11:23:04;8.0;;;7.0;;
22675;SDS011;12521;43.310;21.876;2023-04-25T11:27:49;12.0;;;10.0;;
22675;SDS011;12521;43.310;21.876;2023-04-25T11:32:34;12.0;;;10.0;;
22675;SDS011;12521;43.310;21.876;2023-04-25T11:37:11;15.0;;;14.0;;
22675;SDS011;12521;43.310;21.876;2023-04-25T11:41:51;15.0;;;14.0;;
22675;SDS011;12521;43.310;21.876;2023-04-25T11:46:33;14.0;;;13.0;;
22675;SDS011;12521;43.310;21.876;2023-04-25T11:51:10;14.0;;;13.0;;
22675;SDS011;12521;43.310;21.876;2023-04-25T11:55:48;14.0;;;12.0;;
22675;SDS011;12521;43.310;21.876;2023-04-25T12:00:24;14.0;;;12.0;;
22675;SDS011;12521;43.310;21.876;2023-04-25T12:05:05;13.0;;;12.0;;
22675;SDS011;12521;43.310;21.876;2023-04-25T12:09:50;13.0;;;12.0;;
22675;SDS011;12521;43.310;21.876;2023-04-25T12:14:29;12.0;;;11.0;;
22675;SDS011;12521;43.310;21.876;2023-04-25T12:19:13;12.0;;;11.0;;
22675;SDS011;12521;43.310;21.876;2023-04-25T12:23:53;12.0;;;11.0;;
22675;SDS011;12521;43.310;21.876;2023-04-25T12:28:31;13.0;;;11.0;;
22675;SDS011;12521;43.310;21.876;2023-04-25T12:33:08;13.0;;;11.0;;
22675;SDS011;12521;43.310;21.876;2023-04-25T12:37:45;14.0;;;11.0;;
22675;SDS011;12521;43.310;21.876;2023-04-25T12:42:21;14.0;;;11.0;;
22675;SDS011;12521;43.310;21.876;2023-04-25T12:46:58;12.0;;;10.0;;
22675;SDS011;12521;43.310;21.876;2023-04-25T12:51:35;12.0;;;10.0;;
22675;SDS011;12521;43.310;21.876;2023-04-25T12:56:13;9.0;;;8.0;;
22675;SDS011;12521;43.310;21.876;2023-04-25T13:00:49;9.0;;;8.0;;
22675;SDS011;12521;43.310;21.876;2023-04-25T13:05:26;10.0;;;10.0;;
22675;SDS011;12521;43.310;21.876;2023-04-25T13:10:03;10.0;;;10.0;;
22675;SDS011;12521;43.310;21.876;2023-04-25T13:14:43;12.0;;;11.0;;
22675;SDS011;12521;43.310;21.876;2023-04-25T13:19:20;12.0;;;11.0;;
22675;SDS011;12521;43.310;21.876;2023-04-25T13:23:56;12.0;;;11.0;;
22675;SDS011;12521;43.310;21.876;2023-04-25T13:28:33;12.0;;;11.0;;
22675;SDS011;12521;43.310;21.876;2023-04-25T13:33:10;12.0;;;11.0;;
22675;SDS011;12521;43.310;21.876;2023-04-25T13:37:47;13.0;;;11.0;;
22675;SDS011;12521;43.310;21.876;2023-04-25T13:42:24;13.0;;;11.0;;
22675;SDS011;12521;43.310;21.876;2023-04-25T13:47:00;12.0;;;10.0;;
22675;SDS011;12521;43.310;21.876;2023-04-25T13:51:37;12.0;;;10.0;;
22675;SDS011;12521;43.310;21.876;2023-04-25T13:56:15;10.0;;;9.0;;
22675;SDS011;12521;43.310;21.876;2023-04-25T14:00:53;10.0;;;9.0;;
22675;SDS011;12521;43.310;21.876;2023-04-25T14:05:30;12.0;;;10.0;;
22675;SDS011;12521;43.310;21.876;2023-04-25T14:10:07;12.0;;;10.0;;
22675;SDS011;12521;43.310;21.876;2023-04-25T14:14:46;13.0;;;10.0;;
22675;SDS011;12521;43.310;21.876;2023-04-25T14:19:23;13.0;;;10.0;;
22675;SDS011;12521;43.310;21.876;2023-04-25T14:24:01;13.0;;;10.0;;
22675;SDS011;12521;43.310;21.876;2023-04-25T14:28:39;13.0;;;10.0;;
22675;SDS011;12521;43.310;21.876;2023-04-25T14:33:16;13.0;;;10.0;;
22675;SDS011;12521;43.310;21.876;2023-04-25T14:37:53;13.0;;;11.0;;
22675;SDS011;12521;43.310;21.876;2023-04-25T14:42:30;13.0;;;11.0;;
22675;SDS011;12521;43.310;21.876;2023-04-25T14:47:07;13.0;;;11.0;;
22675;SDS011;12521;43.310;21.876;2023-04-25T14:51:44;13.0;;;11.0;;
22675;SDS011;12521;43.310;21.876;2023-04-25T14:56:20;13.0;;;11.0;;
22675;SDS011;12521;43.310;21.876;2023-04-25T15:00:57;13.0;;;11.0;;
22675;SDS011;12521;43.310;21.876;2023-04-25T15:05:35;14.0;;;12.0;;
22675;SDS011;12521;43.310;21.876;2023-04-25T15:10:12;14.0;;;12.0;;
22675;SDS011;12521;43.310;21.876;2023-04-25T15:14:49;14.0;;;13.0;;
22675;SDS011;12521;43.310;21.876;2023-04-25T15:19:26;14.0;;;13.0;;
22675;SDS011;12521;43.310;21.876;2023-04-25T15:24:03;14.0;;;13.0;;
22675;SDS011;12521;43.310;21.876;2023-04-25T15:28:42;46.0;;;35.0;;
22675;SDS011;12521;43.310;21.876;2023-04-25T15:33:18;46.0;;;35.0;;
22675;SDS011;12521;43.310;21.876;2023-04-25T15:37:55;77.0;;;57.0;;
22675;SDS011;12521;43.310;21.876;2023-04-25T15:42:31;77.0;;;57.0;;
22675;SDS011;12521;43.310;21.876;2023-04-25T15:47:08;66.0;;;52.0;;
22675;SDS011;12521;43.310;21.876;2023-04-25T15:51:45;66.0;;;52.0;;
22675;SDS011;12521;43.310;21.876;2023-04-25T15:56:21;56.0;;;48.0;;
22675;SDS011;12521;43.310;21.876;2023-04-25T16:00:58;56.0;;;48.0;;
22675;SDS011;12521;43.310;21.876;2023-04-25T16:05:34;51.0;;;41.0;;
22675;SDS011;12521;43.310;21.876;2023-04-25T16:10:11;51.0;;;41.0;;
22675;SDS011;12521;43.310;21.876;2023-04-25T16:14:53;46.0;;;34.0;;
22675;SDS011;12521;43.310;21.876;2023-04-25T16:19:29;46.0;;;34.0;;
22675;SDS011;12521;43.310;21.876;2023-04-25T16:24:06;46.0;;;34.0;;
22675;SDS011;12521;43.310;21.876;2023-04-25T16:28:44;53.0;;;42.0;;
22675;SDS011;12521;43.310;21.876;2023-04-25T16:33:21;53.0;;;42.0;;
22675;SDS011;12521;43.310;21.876;2023-04-25T16:37:59;60.0;;;51.0;;
22675;SDS011;12521;43.310;21.876;2023-04-25T16:42:36;60.0;;;51.0;;
22675;SDS011;12521;43.310;21.876;2023-04-25T16:47:13;48.0;;;40.0;;
22675;SDS011;12521;43.310;21.876;2023-04-25T16:51:51;48.0;;;40.0;;
22675;SDS011;12521;43.310;21.876;2023-04-25T16:56:28;35.0;;;30.0;;
22675;SDS011;12521;43.310;21.876;2023-04-25T17:01:05;35.0;;;30.0;;
22675;SDS011;12521;43.310;21.876;2023-04-25T17:05:42;32.0;;;30.0;;
22675;SDS011;12521;43.310;21.876;2023-04-25T17:10:19;32.0;;;30.0;;
22675;SDS011;12521;43.310;21.876;2023-04-25T17:14:56;30.0;;;29.0;;
22675;SDS011;12521;43.310;21.876;2023-04-25T17:19:32;30.0;;;29.0;;
22675;SDS011;12521;43.310;21.876;2023-04-25T17:24:09;30.0;;;29.0;;
22675;SDS011;12521;43.310;21.876;2023-04-25T17:28:46;38.0;;;34.0;;
22675;SDS011;12521;43.310;21.876;2023-04-25T17:33:22;38.0;;;34.0;;
22675;SDS011;12521;43.310;21.876;2023-04-25T17:37:59;46.0;;;40.0;;
22675;SDS011;12521;43.310;21.876;2023-04-25T17:42:36;46.0;;;40.0;;
22675;SDS011;12521;43.310;21.876;2023-04-25T17:47:15;46.0;;;40.0;;
22675;SDS011;12521;43.310;21.876;2023-04-25T17:51:52;46.0;;;40.0;;
22675;SDS011;12521;43.310;21.876;2023-04-25T17:56:28;46.0;;;40.0;;
22675;SDS011;12521;43.310;21.876;2023-04-25T18:01:05;46.0;;;40.0;;
22675;SDS011;12521;43.310;21.876;2023-04-25T18:05:42;48.0;;;44.0;;
22675;SDS011;12521;43.310;21.876;2023-04-25T18:10:18;48.0;;;44.0;;
22675;SDS011;12521;43.310;21.876;2023-04-25T18:14:56;49.0;;;47.0;;
22675;SDS011;12521;43.310;21.876;2023-04-25T18:19:32;49.0;;;47.0;;
22675;SDS011;12521;43.310;21.876;2023-04-25T18:24:09;49.0;;;47.0;;
22675;SDS011;12521;43.310;21.876;2023-04-25T18:28:47;58.0;;;54.0;;
22675;SDS011;12521;43.310;21.876;2023-04-25T18:33:23;58.0;;;54.0;;
22675;SDS011;12521;43.310;21.876;2023-04-25T18:38:00;66.0;;;60.0;;
22675;SDS011;12521;43.310;21.876;2023-04-25T18:42:36;66.0;;;60.0;;
22675;SDS011;12521;43.310;21.876;2023-04-25T18:47:13;74.0;;;60.0;;
22675;SDS011;12521;43.310;21.876;2023-04-25T18:51:50;74.0;;;60.0;;
22675;SDS011;12521;43.310;21.876;2023-04-25T18:56:27;81.0;;;59.0;;
22675;SDS011;12521;43.310;21.876;2023-04-25T19:01:04;81.0;;;59.0;;
22675;SDS011;12521;43.310;21.876;2023-04-25T19:05:41;123.0;;;89.0;;
22675;SDS011;12521;43.310;21.876;2023-04-25T19:10:18;123.0;;;89.0;;
22675;SDS011;12521;43.310;21.876;2023-04-25T19:14:54;165.0;;;119.0;;
22675;SDS011;12521;43.310;21.876;2023-04-25T19:19:31;165.0;;;119.0;;
22675;SDS011;12521;43.310;21.876;2023-04-25T19:24:08;165.0;;;119.0;;
22675;SDS011;12521;43.310;21.876;2023-04-25T19:28:46;186.0;;;138.0;;
22675;SDS011;12521;43.310;21.876;2023-04-25T19:33:43;186.0;;;138.0;;
22675;SDS011;12521;43.310;21.876;2023-04-25T19:38:21;206.0;;;157.0;;
22675;SDS011;12521;43.310;21.876;2023-04-25T19:42:58;206.0;;;157.0;;
22675;SDS011;12521;43.310;21.876;2023-04-25T19:47:35;144.0;;;116.0;;
22675;SDS011;12521;43.310;21.876;2023-04-25T19:52:12;144.0;;;116.0;;
22675;SDS011;12521;43.310;21.876;2023-04-25T19:56:49;82.0;;;75.0;;
22675;SDS011;12521;43.310;21.876;2023-04-25T20:01:26;82.0;;;75.0;;
22675;SDS011;12521;43.310;21.876;2023-04-25T20:06:02;76.0;;;70.0;;
22675;SDS011;12521;43.310;21.876;2023-04-25T20:10:39;76.0;;;70.0;;
22675;SDS011;12521;43.310;21.876;2023-04-25T20:15:16;69.0;;;64.0;;
22675;SDS011;12521;43.310;21.876;2023-04-25T20:19:53;69.0;;;64.0;;
22675;SDS011;12521;43.310;21.876;2023-04-25T20:24:29;69.0;;;64.0;;
22675;SDS011;12521;43.310;21.876;2023-04-25T20:29:06;70.0;;;62.0;;
22675;SDS011;12521;43.310;21.876;2023-04-25T20:33:42;70.0;;;62.0;;
22675;SDS011;12521;43.310;21.876;2023-04-25T20:38:21;70.0;;;60.0;;
22675;SDS011;12521;43.310;21.876;2023-04-25T20:42:58;70.0;;;60.0;;
22675;SDS011;12521;43.310;21.876;2023-04-25T20:47:34;57.0;;;49.0;;
22675;SDS011;12521;43.310;21.876;2023-04-25T20:52:11;57.0;;;49.0;;
22675;SDS011;12521;43.310;21.876;2023-04-25T20:56:47;44.0;;;38.0;;
22675;SDS011;12521;43.310;21.876;2023-04-25T21:01:24;44.0;;;38.0;;
22675;SDS011;12521;43.310;21.876;2023-04-25T21:06:02;44.0;;;38.0;;
22675;SDS011;12521;43.310;21.876;2023-04-25T21:10:39;44.0;;;38.0;;
22675;SDS011;12521;43.310;21.876;2023-04-25T21:15:16;43.0;;;38.0;;
22675;SDS011;12521;43.310;21.876;2023-04-25T21:19:53;43.0;;;38.0;;
22675;SDS011;12521;43.310;21.876;2023-04-25T21:24:30;43.0;;;38.0;;
22675;SDS011;12521;43.310;21.876;2023-04-25T21:29:06;42.0;;;38.0;;
22675;SDS011;12521;43.310;21.876;2023-04-25T21:33:43;42.0;;;38.0;;
22675;SDS011;12521;43.310;21.876;2023-04-25T21:38:20;40.0;;;37.0;;
22675;SDS011;12521;43.310;21.876;2023-04-25T21:42:56;40.0;;;37.0;;
22675;SDS011;12521;43.310;21.876;2023-04-25T21:47:33;42.0;;;38.0;;
22675;SDS011;12521;43.310;21.876;2023-04-25T21:52:11;42.0;;;38.0;;
22675;SDS011;12521;43.310;21.876;2023-04-25T21:56:48;44.0;;;38.0;;
22675;SDS011;12521;43.310;21.876;2023-04-25T22:01:25;44.0;;;38.0;;
22675;SDS011;12521;43.310;21.876;2023-04-25T22:06:02;42.0;;;36.0;;
22675;SDS011;12521;43.310;21.876;2023-04-25T22:10:40;42.0;;;36.0;;
22675;SDS011;12521;43.310;21.876;2023-04-25T22:15:18;41.0;;;34.0;;
22675;SDS011;12521;43.310;21.876;2023-04-25T22:19:57;41.0;;;34.0;;
22675;SDS011;12521;43.310;21.876;2023-04-25T22:24:36;41.0;;;34.0;;
22675;SDS011;12521;43.310;21.876;2023-04-25T22:29:13;35.0;;;30.0;;
22675;SDS011;12521;43.310;21.876;2023-04-25T22:33:50;35.0;;;30.0;;
22675;SDS011;12521;43.310;21.876;2023-04-25T22:38:27;29.0;;;25.0;;
22675;SDS011;12521;43.310;21.876;2023-04-25T22:43:03;29.0;;;25.0;;
22675;SDS011;12521;43.310;21.876;2023-04-25T22:47:40;30.0;;;26.0;;
22675;SDS011;12521;43.310;21.876;2023-04-25T22:52:16;30.0;;;26.0;;
22675;SDS011;12521;43.310;21.876;2023-04-25T22:56:52;31.0;;;26.0;;
22675;SDS011;12521;43.310;21.876;2023-04-25T23:01:29;31.0;;;26.0;;
22675;SDS011;12521;43.310;21.876;2023-04-25T23:06:05;33.0;;;28.0;;
22675;SDS011;12521;43.310;21.876;2023-04-25T23:10:42;33.0;;;28.0;;
22675;SDS011;12521;43.310;21.876;2023-04-25T23:15:19;35.0;;;30.0;;
22675;SDS011;12521;43.310;21.876;2023-04-25T23:19:55;35.0;;;30.0;;
22675;SDS011;12521;43.310;21.876;2023-04-25T23:24:34;35.0;;;30.0;;
22675;SDS011;12521;43.310;21.876;2023-04-25T23:29:11;33.0;;;28.0;;
22675;SDS011;12521;43.310;21.876;2023-04-25T23:33:48;33.0;;;28.0;;
22675;SDS011;12521;43.310;21.876;2023-04-25T23:38:24;31.0;;;27.0;;
22675;SDS011;12521;43.310;21.876;2023-04-25T23:43:02;31.0;;;27.0;;
22675;SDS011;12521;43.310;21.876;2023-04-25T23:47:38;28.0;;;26.0;;
22675;SDS011;12521;43.310;21.876;2023-04-25T23:52:15;28.0;;;26.0;;
22675;SDS011;12521;43.310;21.876;2023-04-25T23:56:51;26.0;;;24.0;;
